Time;durP1;ratioP1;P1;durP2;ratioP2;P2;SDS_P1;SDS_P2;PMS_P1;PMS_P2;Temp;Humidity;BMP_temperature;BMP_pressure;BME280_temperature;BME280_humidity;BME280_pressure;Samples;Min_cycle;Max_cycle;Signal;HPM_P1;HPM_P2
2021/03/11 00:01:07;;;;;;;26.03;15.03;;;;;;;;;;5018703;28;20204;-50
2021/03/11 00:03:32;;;;;;;27.13;18.87;;;;;;;;;;5012968;28;20195;-52
2021/03/11 00:05:58;;;;;;;29.40;20.13;;;;;;;;;;5006700;28;20206;-54
2021/03/11 00:08:23;;;;;;;32.47;19.00;;;;;;;;;;5012199;28;20188;-57
2021/03/11 00:10:48;;;;;;;28.37;14.07;;;;;;;;;;5011821;28;20203;-56
2021/03/11 00:13:15;;;;;;;29.43;18.83;;;;;;;;;;5021726;28;20204;-54
2021/03/11 00:15:42;;;;;;;29.37;19.57;;;;;;;;;;5013987;28;20567;-51
2021/03/11 00:18:09;;;;;;;34.97;21.90;;;;;;;;;;5007862;28;20289;-50
2021/03/11 00:20:34;;;;;;;35.77;23.57;;;;;;;;;;5004079;28;20199;-50
2021/03/11 00:23:00;;;;;;;29.00;17.33;;;;;;;;;;4986243;28;20241;-51
2021/03/11 00:25:30;;;;;;;30.83;18.63;;;;;;;;;;4996743;28;20215;-50
2021/03/11 00:27:56;;;;;;;30.57;18.13;;;;;;;;;;5007012;28;20279;-54
2021/03/11 00:30:22;;;;;;;38.10;24.07;;;;;;;;;;5004491;28;20286;-53
2021/03/11 00:32:48;;;;;;;38.87;23.77;;;;;;;;;;4990839;28;20183;-53
2021/03/11 00:35:14;;;;;;;37.00;25.20;;;;;;;;;;5006594;28;20214;-54
2021/03/11 00:37:41;;;;;;;34.53;21.93;;;;;;;;;;5007783;28;20195;-53
2021/03/11 00:40:09;;;;;;;40.07;26.87;;;;;;;;;;4990513;28;20765;-52
2021/03/11 00:42:34;;;;;;;42.20;25.20;;;;;;;;;;5005309;28;20207;-53
2021/03/11 00:45:00;;;;;;;39.80;26.50;;;;;;;;;;5005266;28;20706;-52
2021/03/11 00:47:25;;;;;;;32.80;20.77;;;;;;;;;;4995700;28;20700;-56
2021/03/11 00:49:51;;;;;;;39.73;24.70;;;;;;;;;;5000198;28;20219;-56
2021/03/11 00:52:16;;;;;;;38.70;23.10;;;;;;;;;;5003482;28;20609;-54
2021/03/11 00:54:41;;;;;;;36.97;22.07;;;;;;;;;;5002143;28;20216;-55
2021/03/11 00:57:07;;;;;;;36.93;24.17;;;;;;;;;;4990815;28;20195;-54
2021/03/11 00:59:33;;;;;;;36.20;24.73;;;;;;;;;;5004174;28;20191;-54
2021/03/11 01:01:58;;;;;;;35.60;22.83;;;;;;;;;;5003791;28;21096;-54
2021/03/11 01:04:23;;;;;;;37.10;21.03;;;;;;;;;;5005499;28;21781;-54
2021/03/11 01:06:49;;;;;;;38.07;23.03;;;;;;;;;;5006370;28;20213;-55
2021/03/11 01:09:16;;;;;;;28.10;15.20;;;;;;;;;;5002922;28;20195;-53
2021/03/11 01:11:42;;;;;;;32.43;19.43;;;;;;;;;;5004299;28;20195;-52
2021/03/11 01:14:07;;;;;;;35.60;19.73;;;;;;;;;;5002833;28;20215;-54
2021/03/11 01:16:32;;;;;;;39.07;23.90;;;;;;;;;;5007500;28;20248;-54
2021/03/11 01:18:58;;;;;;;39.00;24.93;;;;;;;;;;5005119;28;20241;-54
2021/03/11 01:21:23;;;;;;;32.73;22.17;;;;;;;;;;4994775;28;20191;-53
2021/03/11 01:23:48;;;;;;;33.93;20.87;;;;;;;;;;5003719;28;20207;-53
2021/03/11 01:26:14;;;;;;;34.03;22.13;;;;;;;;;;5007257;28;20610;-53
2021/03/11 01:28:39;;;;;;;34.37;23.00;;;;;;;;;;4998867;28;20753;-54
2021/03/11 01:31:04;;;;;;;27.33;17.27;;;;;;;;;;5002435;28;20199;-51
2021/03/11 01:33:29;;;;;;;37.07;22.13;;;;;;;;;;5007630;28;20197;-52
2021/03/11 01:35:55;;;;;;;26.97;16.50;;;;;;;;;;4981705;28;20343;-50
2021/03/11 01:38:20;;;;;;;37.50;24.90;;;;;;;;;;4968045;28;20233;-50
2021/03/11 01:40:46;;;;;;;40.50;25.60;;;;;;;;;;5002772;28;20189;-50
2021/03/11 01:43:11;;;;;;;38.17;23.63;;;;;;;;;;5001926;28;20188;-48
2021/03/11 01:45:37;;;;;;;38.40;23.23;;;;;;;;;;5001495;28;20294;-48
2021/03/11 01:48:03;;;;;;;43.30;26.03;;;;;;;;;;5002243;28;20187;-49
2021/03/11 01:50:28;;;;;;;38.13;23.67;;;;;;;;;;5012839;28;20270;-50
2021/03/11 01:52:54;;;;;;;33.70;21.00;;;;;;;;;;5003976;28;20195;-49
2021/03/11 01:55:19;;;;;;;39.73;24.07;;;;;;;;;;5006460;28;20214;-49
2021/03/11 01:57:47;;;;;;;37.57;23.83;;;;;;;;;;5004613;28;20202;-49
2021/03/11 02:00:13;;;;;;;31.20;17.10;;;;;;;;;;5003422;28;20195;-50
2021/03/11 02:02:45;;;;;;;34.73;21.40;;;;;;;;;;5003982;28;20683;-49
2021/03/11 02:05:13;;;;;;;28.73;16.37;;;;;;;;;;5002638;28;20212;-50
2021/03/11 02:07:39;;;;;;;33.37;18.93;;;;;;;;;;5006365;28;20191;-49
2021/03/11 02:10:06;;;;;;;30.00;17.10;;;;;;;;;;5000720;28;20282;-50
2021/03/11 02:12:37;;;;;;;29.83;18.53;;;;;;;;;;5006751;28;20274;-51
2021/03/11 02:15:20;;;;;;;27.37;14.30;;;;;;;;;;5011745;28;20214;-50
2021/03/11 02:17:54;;;;;;;30.60;16.97;;;;;;;;;;5006050;28;20198;-51
2021/03/11 02:20:41;;;;;;;25.33;13.07;;;;;;;;;;5002802;28;20283;-50
2021/03/11 02:23:17;;;;;;;18.73;10.07;;;;;;;;;;5002701;28;20191;-50
2021/03/11 02:26:20;;;;;;;27.70;15.60;;;;;;;;;;5007428;28;20202;-51
2021/03/11 02:29:06;;;;;;;24.33;12.87;;;;;;;;;;4999698;28;20208;-50
2021/03/11 02:31:35;;;;;;;11.00;6.93;;;;;;;;;;5012007;28;20229;-52
2021/03/11 02:34:04;;;;;;;22.67;10.90;;;;;;;;;;5006039;28;20624;-51
2021/03/11 02:36:29;;;;;;;26.17;8.43;;;;;;;;;;5003903;28;20202;-52
2021/03/11 02:38:56;;;;;;;17.23;9.97;;;;;;;;;;5007050;28;20187;-51
2021/03/11 02:41:26;;;;;;;21.70;11.57;;;;;;;;;;5016700;28;20203;-53
2021/03/11 02:43:52;;;;;;;38.73;13.47;;;;;;;;;;4987067;28;20562;-53
2021/03/11 02:46:19;;;;;;;38.10;15.83;;;;;;;;;;5004908;28;20278;-53
2021/03/11 02:48:46;;;;;;;37.33;18.63;;;;;;;;;;5012334;28;20199;-53
2021/03/11 02:51:13;;;;;;;24.17;13.37;;;;;;;;;;5000125;28;20219;-52
2021/03/11 02:53:39;;;;;;;21.33;12.43;;;;;;;;;;4998570;28;20195;-53
2021/03/11 02:56:05;;;;;;;27.83;13.67;;;;;;;;;;5007014;28;20306;-52
2021/03/11 02:58:32;;;;;;;22.57;11.50;;;;;;;;;;5001903;28;20230;-53
2021/03/11 03:00:59;;;;;;;27.00;14.93;;;;;;;;;;5012430;28;21524;-51
2021/03/11 03:03:27;;;;;;;32.73;17.20;;;;;;;;;;4992160;28;20270;-52
2021/03/11 03:05:53;;;;;;;30.53;16.47;;;;;;;;;;5004508;28;20675;-52
2021/03/11 03:08:18;;;;;;;30.33;17.63;;;;;;;;;;5006864;28;20187;-52
2021/03/11 03:10:45;;;;;;;25.37;16.03;;;;;;;;;;5008727;28;20198;-52
2021/03/11 03:13:16;;;;;;;24.10;9.43;;;;;;;;;;5010965;28;20183;-52
2021/03/11 03:15:42;;;;;;;30.87;18.97;;;;;;;;;;4999634;28;20266;-52
2021/03/11 03:18:10;;;;;;;35.33;22.83;;;;;;;;;;5006812;28;20672;-52
2021/03/11 03:20:36;;;;;;;34.93;22.73;;;;;;;;;;5006578;28;20191;-52
2021/03/11 03:23:05;;;;;;;38.60;24.23;;;;;;;;;;4984201;28;20187;-51
2021/03/11 03:25:31;;;;;;;39.90;22.63;;;;;;;;;;5002917;28;20217;-52
2021/03/11 03:27:56;;;;;;;39.07;24.43;;;;;;;;;;5002774;28;20305;-52
2021/03/11 03:30:23;;;;;;;29.73;17.07;;;;;;;;;;5004779;28;20810;-51
2021/03/11 03:32:48;;;;;;;25.33;16.07;;;;;;;;;;5008514;28;20695;-52
2021/03/11 03:35:15;;;;;;;35.87;22.13;;;;;;;;;;5005496;28;20226;-51
2021/03/11 03:37:40;;;;;;;28.80;19.47;;;;;;;;;;5008829;28;20195;-51
2021/03/11 03:40:08;;;;;;;31.70;18.57;;;;;;;;;;5004142;28;20713;-51
2021/03/11 03:42:48;;;;;;;27.87;18.03;;;;;;;;;;5009838;28;20577;-52
2021/03/11 03:45:23;;;;;;;29.83;21.00;;;;;;;;;;5006671;28;20210;-51
2021/03/11 03:47:49;;;;;;;24.43;13.20;;;;;;;;;;4989107;28;20697;-52
2021/03/11 03:50:16;;;;;;;36.37;21.17;;;;;;;;;;5007421;28;20184;-51
2021/03/11 03:52:42;;;;;;;17.63;10.50;;;;;;;;;;5006017;28;20219;-51
2021/03/11 03:55:11;;;;;;;29.07;21.57;;;;;;;;;;5008675;28;20241;-51
2021/03/11 03:57:41;;;;;;;17.93;10.70;;;;;;;;;;4989422;28;20254;-51
2021/03/11 04:00:08;;;;;;;16.83;11.67;;;;;;;;;;5001952;28;20199;-52
2021/03/11 04:02:34;;;;;;;28.57;18.27;;;;;;;;;;5003458;28;20199;-52
2021/03/11 04:05:02;;;;;;;21.90;13.27;;;;;;;;;;5008781;28;20199;-51
2021/03/11 04:07:27;;;;;;;22.70;15.07;;;;;;;;;;5005843;28;20188;-50
2021/03/11 04:09:53;;;;;;;27.83;20.73;;;;;;;;;;5009210;28;20188;-50
2021/03/11 04:12:20;;;;;;;28.23;17.43;;;;;;;;;;4987451;28;20184;-50
2021/03/11 04:14:47;;;;;;;24.23;17.17;;;;;;;;;;5009712;28;20233;-50
2021/03/11 04:17:15;;;;;;;18.63;12.53;;;;;;;;;;5008090;28;20195;-51
2021/03/11 04:19:41;;;;;;;21.80;14.37;;;;;;;;;;5007205;28;20211;-50
2021/03/11 04:22:07;;;;;;;28.30;18.67;;;;;;;;;;5005879;28;20235;-51
2021/03/11 04:24:34;;;;;;;18.93;13.27;;;;;;;;;;5005046;28;20234;-51
2021/03/11 04:27:01;;;;;;;26.13;18.80;;;;;;;;;;5002784;28;20234;-52
2021/03/11 04:29:27;;;;;;;12.80;7.93;;;;;;;;;;4988124;28;20215;-50
2021/03/11 04:31:53;;;;;;;19.87;12.63;;;;;;;;;;4988560;28;20191;-50
2021/03/11 04:34:19;;;;;;;18.03;11.23;;;;;;;;;;5007362;28;20278;-51
2021/03/11 04:36:44;;;;;;;13.93;9.43;;;;;;;;;;4989285;28;20644;-51
2021/03/11 04:39:10;;;;;;;13.53;8.13;;;;;;;;;;5001625;28;20188;-52
2021/03/11 04:41:35;;;;;;;21.47;12.40;;;;;;;;;;4986859;28;20187;-52
2021/03/11 04:44:02;;;;;;;13.67;7.73;;;;;;;;;;4989522;28;20235;-51
2021/03/11 04:46:27;;;;;;;18.10;12.00;;;;;;;;;;4990206;28;20190;-56
2021/03/11 04:48:53;;;;;;;22.87;14.47;;;;;;;;;;5008237;28;20659;-51
2021/03/11 04:51:19;;;;;;;13.47;9.13;;;;;;;;;;5005756;28;20277;-51
2021/03/11 04:53:45;;;;;;;17.97;10.73;;;;;;;;;;5008361;28;20183;-51
2021/03/11 04:56:11;;;;;;;11.90;7.70;;;;;;;;;;4989618;28;20211;-51
2021/03/11 04:58:38;;;;;;;8.70;7.10;;;;;;;;;;5009460;28;20286;-51
2021/03/11 05:01:09;;;;;;;23.03;16.10;;;;;;;;;;5005034;28;20253;-50
2021/03/11 05:03:36;;;;;;;17.17;12.83;;;;;;;;;;4989879;28;20270;-51
2021/03/11 05:06:02;;;;;;;20.03;11.70;;;;;;;;;;5007558;28;20184;-51
2021/03/11 05:08:27;;;;;;;17.47;10.07;;;;;;;;;;5000498;28;20188;-53
2021/03/11 05:10:52;;;;;;;17.00;10.90;;;;;;;;;;4989898;28;20191;-52
2021/03/11 05:13:18;;;;;;;23.43;15.33;;;;;;;;;;5007755;28;20192;-50
2021/03/11 05:15:43;;;;;;;10.13;7.43;;;;;;;;;;5012306;28;20214;-50
2021/03/11 05:18:08;;;;;;;18.10;10.77;;;;;;;;;;5005779;28;20683;-50
2021/03/11 05:20:34;;;;;;;12.13;6.53;;;;;;;;;;4986953;28;20282;-50
2021/03/11 05:22:59;;;;;;;15.20;10.53;;;;;;;;;;4995088;28;20675;-51
2021/03/11 05:25:24;;;;;;;16.67;12.63;;;;;;;;;;5007826;28;20215;-50
2021/03/11 05:27:49;;;;;;;12.30;8.23;;;;;;;;;;5006015;28;20192;-50
2021/03/11 05:30:16;;;;;;;18.20;11.77;;;;;;;;;;5006832;28;20202;-49
2021/03/11 05:32:41;;;;;;;19.83;13.40;;;;;;;;;;4987696;28;20191;-50
2021/03/11 05:35:07;;;;;;;11.07;6.93;;;;;;;;;;5005647;28;20281;-49
2021/03/11 05:37:32;;;;;;;10.80;7.37;;;;;;;;;;4979936;28;20713;-50
2021/03/11 05:39:58;;;;;;;10.77;6.87;;;;;;;;;;5004616;28;20195;-50
2021/03/11 05:42:24;;;;;;;11.43;8.23;;;;;;;;;;5004127;28;20209;-49
2021/03/11 05:44:50;;;;;;;10.73;7.23;;;;;;;;;;5007428;28;20215;-51
2021/03/11 05:47:16;;;;;;;13.70;8.30;;;;;;;;;;5005059;28;20188;-51
2021/03/11 05:49:42;;;;;;;25.73;18.30;;;;;;;;;;5003494;28;20198;-50
2021/03/11 05:52:12;;;;;;;24.77;18.13;;;;;;;;;;5006209;28;20253;-50
2021/03/11 05:54:38;;;;;;;15.07;10.73;;;;;;;;;;5006551;28;20211;-50
2021/03/11 05:57:04;;;;;;;11.47;7.57;;;;;;;;;;4984585;28;20674;-50
2021/03/11 05:59:30;;;;;;;15.40;10.27;;;;;;;;;;4983606;28;20883;-50
2021/03/11 06:02:00;;;;;;;16.77;12.23;;;;;;;;;;5004773;28;20217;-51
2021/03/11 06:04:26;;;;;;;18.70;11.43;;;;;;;;;;5007412;28;20201;-50
2021/03/11 06:06:52;;;;;;;17.40;10.70;;;;;;;;;;5003333;28;20194;-49
2021/03/11 06:09:18;;;;;;;13.20;9.40;;;;;;;;;;5005439;28;20620;-49
2021/03/11 06:11:44;;;;;;;18.97;10.20;;;;;;;;;;5007095;28;20201;-50
2021/03/11 06:14:12;;;;;;;18.07;11.90;;;;;;;;;;4998034;28;20207;-50
2021/03/11 06:16:41;;;;;;;18.80;12.03;;;;;;;;;;5004875;28;20191;-50
2021/03/11 06:19:08;;;;;;;11.63;6.83;;;;;;;;;;5002905;28;20202;-49
2021/03/11 06:21:33;;;;;;;13.87;9.37;;;;;;;;;;4995539;28;20265;-51
2021/03/11 06:23:59;;;;;;;13.90;8.53;;;;;;;;;;4987838;28;20242;-52
2021/03/11 06:26:24;;;;;;;19.13;11.77;;;;;;;;;;5000601;28;20192;-50
2021/03/11 06:28:51;;;;;;;14.50;9.83;;;;;;;;;;5002972;28;20191;-51
2021/03/11 06:31:27;;;;;;;10.70;6.97;;;;;;;;;;5001447;28;20202;-49
2021/03/11 06:33:55;;;;;;;20.37;12.63;;;;;;;;;;4999261;28;20192;-49
2021/03/11 06:36:22;;;;;;;10.70;7.77;;;;;;;;;;5006968;28;20278;-50
2021/03/11 06:38:48;;;;;;;13.00;9.67;;;;;;;;;;5003696;28;20188;-50
2021/03/11 06:41:14;;;;;;;10.13;7.87;;;;;;;;;;4997069;28;20206;-50
2021/03/11 06:43:53;;;;;;;11.27;7.93;;;;;;;;;;5006551;28;20576;-50
2021/03/11 06:46:20;;;;;;;8.77;6.53;;;;;;;;;;5007799;28;20183;-50
2021/03/11 06:48:47;;;;;;;16.03;12.00;;;;;;;;;;5007893;28;20575;-49
2021/03/11 06:51:20;;;;;;;16.87;9.93;;;;;;;;;;5008194;28;20702;-51
2021/03/11 06:53:56;;;;;;;10.73;7.73;;;;;;;;;;4989060;28;20723;-51
2021/03/11 06:56:22;;;;;;;11.00;8.40;;;;;;;;;;4990004;28;20674;-50
2021/03/11 06:58:59;;;;;;;10.53;6.57;;;;;;;;;;5004924;28;20312;-49
2021/03/11 07:01:26;;;;;;;13.37;8.23;;;;;;;;;;4983911;28;20192;-52
2021/03/11 07:03:51;;;;;;;17.20;11.40;;;;;;;;;;5005686;28;20191;-51
2021/03/11 07:06:30;;;;;;;15.63;11.23;;;;;;;;;;5002231;28;20183;-51
2021/03/11 07:08:57;;;;;;;13.50;7.97;;;;;;;;;;5005453;28;20563;-49
2021/03/11 07:11:23;;;;;;;12.97;8.73;;;;;;;;;;4998638;28;20678;-51
2021/03/11 07:13:50;;;;;;;12.13;7.90;;;;;;;;;;5005348;28;20739;-50
2021/03/11 07:16:17;;;;;;;9.70;7.10;;;;;;;;;;5007886;28;20211;-51
2021/03/11 07:18:43;;;;;;;14.60;8.70;;;;;;;;;;5006134;28;20242;-51
2021/03/11 07:21:09;;;;;;;12.47;9.63;;;;;;;;;;5007165;28;20223;-50
2021/03/11 07:23:46;;;;;;;12.43;8.47;;;;;;;;;;5006229;28;20196;-49
2021/03/11 07:26:11;;;;;;;12.03;8.00;;;;;;;;;;5003234;28;20181;-50
2021/03/11 07:28:37;;;;;;;18.20;11.73;;;;;;;;;;5009336;28;20187;-50
2021/03/11 07:31:03;;;;;;;13.13;7.83;;;;;;;;;;5005638;28;20191;-50
2021/03/11 07:33:38;;;;;;;11.03;6.90;;;;;;;;;;5004972;28;20199;-52
2021/03/11 07:36:08;;;;;;;14.07;7.13;;;;;;;;;;5007012;28;20215;-53
2021/03/11 07:38:35;;;;;;;18.23;12.03;;;;;;;;;;5005439;28;20287;-50
2021/03/11 07:41:06;;;;;;;10.53;6.47;;;;;;;;;;5007699;28;20206;-51
2021/03/11 07:43:32;;;;;;;17.47;7.77;;;;;;;;;;5003832;28;20195;-49
2021/03/11 07:46:05;;;;;;;13.47;6.77;;;;;;;;;;5005184;28;20246;-51
2021/03/11 07:48:30;;;;;;;21.67;13.90;;;;;;;;;;5007234;28;20207;-49
2021/03/11 07:50:57;;;;;;;13.40;8.90;;;;;;;;;;5007520;28;20195;-49
2021/03/11 07:53:24;;;;;;;16.73;12.30;;;;;;;;;;5005124;28;20671;-50
2021/03/11 07:55:51;;;;;;;19.50;12.83;;;;;;;;;;5005252;28;20321;-52
2021/03/11 07:58:22;;;;;;;18.40;13.40;;;;;;;;;;5002940;28;20199;-50
2021/03/11 08:00:47;;;;;;;12.93;8.37;;;;;;;;;;5007922;28;20593;-51
2021/03/11 08:03:15;;;;;;;10.63;8.43;;;;;;;;;;5005896;28;20198;-50
2021/03/11 08:05:41;;;;;;;11.90;6.93;;;;;;;;;;5004783;28;20249;-50
2021/03/11 08:08:16;;;;;;;14.13;7.93;;;;;;;;;;5006932;28;20191;-50
2021/03/11 08:10:50;;;;;;;15.57;11.23;;;;;;;;;;5006906;28;20182;-50
2021/03/11 08:13:32;;;;;;;12.37;8.30;;;;;;;;;;5005557;28;20277;-50
2021/03/11 08:16:00;;;;;;;12.70;8.10;;;;;;;;;;4999147;28;20220;-50
2021/03/11 08:18:34;;;;;;;9.57;5.73;;;;;;;;;;5002220;28;20194;-51
2021/03/11 08:21:07;;;;;;;6.17;4.90;;;;;;;;;;5001094;28;20542;-50
2021/03/11 08:23:33;;;;;;;12.23;7.57;;;;;;;;;;5002335;28;20237;-51
2021/03/11 08:26:00;;;;;;;11.07;7.90;;;;;;;;;;4985127;28;20273;-52
2021/03/11 08:28:25;;;;;;;7.37;5.23;;;;;;;;;;5005987;28;20187;-53
2021/03/11 08:30:55;;;;;;;7.57;5.07;;;;;;;;;;5006168;28;20210;-51
2021/03/11 08:33:20;;;;;;;10.60;8.20;;;;;;;;;;5003532;28;20187;-53
2021/03/11 08:35:47;;;;;;;7.67;5.13;;;;;;;;;;5004999;28;20219;-53
2021/03/11 08:38:26;;;;;;;5.83;4.17;;;;;;;;;;5004499;28;20191;-51
2021/03/11 08:40:52;;;;;;;7.90;4.93;;;;;;;;;;5002942;28;20273;-49
2021/03/11 08:43:36;;;;;;;10.00;8.23;;;;;;;;;;5007012;28;20782;-50
2021/03/11 08:46:05;;;;;;;5.83;4.17;;;;;;;;;;5001969;28;20581;-50
2021/03/11 08:48:54;;;;;;;7.03;4.67;;;;;;;;;;5002622;28;20191;-50
2021/03/11 08:51:22;;;;;;;5.73;4.10;;;;;;;;;;5000690;28;20463;-51
2021/03/11 08:53:52;;;;;;;5.90;3.97;;;;;;;;;;5004947;28;20187;-50
2021/03/11 08:56:17;;;;;;;6.53;3.70;;;;;;;;;;4996856;28;20717;-51
2021/03/11 08:59:02;;;;;;;4.27;3.20;;;;;;;;;;4989769;28;20671;-52
2021/03/11 09:01:28;;;;;;;7.97;5.10;;;;;;;;;;5004528;28;20719;-50
2021/03/11 09:03:53;;;;;;;5.17;4.07;;;;;;;;;;4993709;28;20356;-50
2021/03/11 09:06:20;;;;;;;5.03;3.83;;;;;;;;;;4990727;28;20606;-53
2021/03/11 09:08:47;;;;;;;5.00;3.27;;;;;;;;;;5002341;28;20198;-51
2021/03/11 09:11:21;;;;;;;7.83;5.47;;;;;;;;;;4999149;28;20239;-51
2021/03/11 09:13:49;;;;;;;5.43;4.70;;;;;;;;;;5002911;28;20282;-52
2021/03/11 09:16:14;;;;;;;6.83;4.30;;;;;;;;;;5002811;28;20609;-50
2021/03/11 09:18:40;;;;;;;4.63;3.30;;;;;;;;;;5000480;28;20201;-54
2021/03/11 09:21:06;;;;;;;4.40;4.00;;;;;;;;;;4998609;28;20199;-53
2021/03/11 09:23:42;;;;;;;3.37;2.50;;;;;;;;;;4981617;28;20204;-53
2021/03/11 09:26:26;;;;;;;3.10;2.57;;;;;;;;;;4994680;28;20651;-52
2021/03/11 09:28:51;;;;;;;4.37;2.93;;;;;;;;;;5002725;28;20191;-53
2021/03/11 09:31:24;;;;;;;4.70;2.93;;;;;;;;;;5006901;28;20190;-51
2021/03/11 09:33:50;;;;;;;4.03;2.90;;;;;;;;;;5007950;28;20208;-52
2021/03/11 09:36:16;;;;;;;4.53;3.30;;;;;;;;;;5000100;28;20218;-53
2021/03/11 09:38:42;;;;;;;3.07;2.50;;;;;;;;;;5008137;28;20207;-51
2021/03/11 09:41:07;;;;;;;4.23;3.20;;;;;;;;;;5000720;28;20233;-51
2021/03/11 09:43:35;;;;;;;2.80;2.30;;;;;;;;;;5007199;28;20224;-50
2021/03/11 09:46:14;;;;;;;4.77;2.73;;;;;;;;;;5007023;28;20214;-53
2021/03/11 09:48:42;;;;;;;3.37;3.00;;;;;;;;;;5001263;28;20199;-52
2021/03/11 09:51:11;;;;;;;2.57;2.03;;;;;;;;;;4991685;28;20726;-52
2021/03/11 09:53:43;;;;;;;8.73;2.83;;;;;;;;;;5008654;28;20183;-52
2021/03/11 09:56:19;;;;;;;2.23;1.80;;;;;;;;;;4992127;28;20215;-52
2021/03/11 09:58:54;;;;;;;2.43;1.93;;;;;;;;;;4981810;28;20190;-52
2021/03/11 10:01:29;;;;;;;4.63;2.30;;;;;;;;;;4987874;28;20269;-51
2021/03/11 10:03:55;;;;;;;2.67;2.00;;;;;;;;;;4998890;28;20270;-49
2021/03/11 10:06:22;;;;;;;2.27;2.07;;;;;;;;;;4982647;28;20290;-51
2021/03/11 10:08:53;;;;;;;1.83;1.70;;;;;;;;;;5000417;28;20191;-50
2021/03/11 10:11:20;;;;;;;2.33;1.80;;;;;;;;;;4997010;28;20204;-49
2021/03/11 10:14:01;;;;;;;2.67;1.73;;;;;;;;;;4984421;28;20202;-48
2021/03/11 10:16:32;;;;;;;3.77;1.80;;;;;;;;;;5000254;28;20683;-50
2021/03/11 10:19:17;;;;;;;4.67;2.07;;;;;;;;;;4998458;28;20202;-49
2021/03/11 10:22:06;;;;;;;1.80;1.70;;;;;;;;;;5001760;28;20569;-50
2021/03/11 10:24:39;;;;;;;2.85;1.77;;;;;;;;;;5002090;28;20804;-50
2021/03/11 10:27:34;;;;;;;3.15;2.35;;;;;;;;;;5004695;28;20660;-51
2021/03/11 10:30:05;;;;;;;1.90;1.60;;;;;;;;;;5005384;28;20192;-49
2021/03/11 10:32:31;;;;;;;5.27;1.60;;;;;;;;;;5003259;28;20219;-49
2021/03/11 10:34:57;;;;;;;1.77;1.60;;;;;;;;;;5003624;28;20698;-51
2021/03/11 10:37:31;;;;;;;3.90;1.83;;;;;;;;;;5001494;28;20291;-50
2021/03/11 10:39:58;;;;;;;2.37;1.63;;;;;;;;;;4972719;28;20198;-50
2021/03/11 10:42:25;;;;;;;2.60;2.13;;;;;;;;;;5002167;28;20545;-52
2021/03/11 10:44:57;;;;;;;1.80;1.70;;;;;;;;;;5002311;28;20648;-48
2021/03/11 10:47:22;;;;;;;1.80;1.70;;;;;;;;;;5006085;28;20179;-50
2021/03/11 10:49:47;;;;;;;1.83;1.67;;;;;;;;;;4999668;28;20201;-50
2021/03/11 10:52:16;;;;;;;2.40;2.20;;;;;;;;;;5011221;28;20198;-52
2021/03/11 10:54:42;;;;;;;2.20;1.70;;;;;;;;;;5004222;28;20207;-51
2021/03/11 10:57:19;;;;;;;2.03;1.80;;;;;;;;;;5002597;28;20194;-52
2021/03/11 10:59:58;;;;;;;2.47;1.90;;;;;;;;;;5011403;28;20195;-52
2021/03/11 11:02:26;;;;;;;1.90;1.70;;;;;;;;;;5002763;28;20585;-52
2021/03/11 11:04:52;;;;;;;2.00;1.80;;;;;;;;;;5002543;28;20207;-51
2021/03/11 11:07:18;;;;;;;2.80;2.00;;;;;;;;;;4986043;28;20561;-53
2021/03/11 11:09:43;;;;;;;3.93;1.60;;;;;;;;;;5004139;28;20196;-51
2021/03/11 11:12:13;;;;;;;2.47;1.80;;;;;;;;;;5001223;28;20201;-51
2021/03/11 11:14:39;;;;;;;2.80;1.90;;;;;;;;;;4999574;28;20216;-49
2021/03/11 11:17:05;;;;;;;2.53;2.10;;;;;;;;;;5005611;28;20198;-51
2021/03/11 11:19:30;;;;;;;3.27;1.63;;;;;;;;;;5003885;28;20807;-51
2021/03/11 11:21:55;;;;;;;3.30;2.20;;;;;;;;;;4999346;28;21068;-51
2021/03/11 11:24:20;;;;;;;1.73;1.63;;;;;;;;;;5001809;28;20290;-52
2021/03/11 11:26:46;;;;;;;4.33;1.53;;;;;;;;;;5006706;28;20895;-51
2021/03/11 11:29:11;;;;;;;1.50;1.40;;;;;;;;;;4999618;28;20187;-54
2021/03/11 11:31:37;;;;;;;1.87;1.70;;;;;;;;;;5003731;28;20676;-52
2021/03/11 11:34:02;;;;;;;1.63;1.50;;;;;;;;;;4999375;28;20283;-52
2021/03/11 11:36:28;;;;;;;2.20;1.37;;;;;;;;;;5005412;28;20208;-51
2021/03/11 11:38:53;;;;;;;1.43;1.33;;;;;;;;;;5001165;28;20200;-51
2021/03/11 11:41:19;;;;;;;1.57;1.40;;;;;;;;;;4999944;28;20682;-50
2021/03/11 11:43:45;;;;;;;1.20;1.10;;;;;;;;;;5002953;28;20686;-49
2021/03/11 11:46:10;;;;;;;1.77;1.40;;;;;;;;;;5001505;28;20196;-51
2021/03/11 11:48:36;;;;;;;2.10;1.30;;;;;;;;;;5003164;28;20202;-51
2021/03/11 11:51:01;;;;;;;1.83;1.60;;;;;;;;;;5003297;28;20802;-50
2021/03/11 11:53:27;;;;;;;1.33;1.20;;;;;;;;;;5006505;28;20711;-49
2021/03/11 11:55:52;;;;;;;1.40;1.30;;;;;;;;;;4986058;28;20760;-51
2021/03/11 11:58:17;;;;;;;2.20;1.50;;;;;;;;;;4999069;28;20196;-50
2021/03/11 12:00:43;;;;;;;2.80;2.07;;;;;;;;;;5011650;28;20195;-52
2021/03/11 12:03:09;;;;;;;3.70;1.93;;;;;;;;;;5002091;28;20226;-51
2021/03/11 12:05:34;;;;;;;2.97;2.17;;;;;;;;;;5002799;28;20231;-51
2021/03/11 12:07:59;;;;;;;3.50;2.87;;;;;;;;;;4995334;28;20207;-52
2021/03/11 12:10:25;;;;;;;2.90;2.00;;;;;;;;;;4994531;28;20192;-53
2021/03/11 12:12:51;;;;;;;3.10;2.33;;;;;;;;;;4994871;28;20210;-53
2021/03/11 12:15:16;;;;;;;3.83;3.03;;;;;;;;;;5002821;28;20207;-53
2021/03/11 12:17:41;;;;;;;5.10;3.67;;;;;;;;;;5002271;28;20666;-52
2021/03/11 12:20:07;;;;;;;6.57;4.17;;;;;;;;;;5002713;28;20202;-53
2021/03/11 12:22:33;;;;;;;3.50;2.93;;;;;;;;;;5002894;28;20203;-53
2021/03/11 12:24:58;;;;;;;2.30;1.67;;;;;;;;;;5000037;28;20579;-52
2021/03/11 12:27:24;;;;;;;2.50;1.93;;;;;;;;;;5000814;28;20202;-53
2021/03/11 12:29:52;;;;;;;1.27;1.17;;;;;;;;;;5002232;28;20202;-52
2021/03/11 12:32:20;;;;;;;1.63;1.50;;;;;;;;;;5001665;28;20187;-53
2021/03/11 12:34:48;;;;;;;1.70;1.10;;;;;;;;;;5008821;28;20276;-52
2021/03/11 12:37:13;;;;;;;1.13;1.10;;;;;;;;;;5003941;28;20875;-53
2021/03/11 12:39:41;;;;;;;2.70;1.73;;;;;;;;;;4998587;28;20299;-52
2021/03/11 12:42:07;;;;;;;2.33;1.30;;;;;;;;;;4983103;28;20199;-52
2021/03/11 12:44:33;;;;;;;2.13;1.73;;;;;;;;;;5004935;28;20231;-54
2021/03/11 12:46:58;;;;;;;1.63;1.40;;;;;;;;;;5001916;28;21003;-52
2021/03/11 12:49:23;;;;;;;1.73;1.63;;;;;;;;;;5000346;28;20282;-53
2021/03/11 12:51:49;;;;;;;3.17;2.43;;;;;;;;;;5002052;28;20250;-53
2021/03/11 12:54:14;;;;;;;4.43;2.50;;;;;;;;;;4988382;28;20922;-51
2021/03/11 12:56:39;;;;;;;1.50;1.40;;;;;;;;;;4996226;28;20207;-54
2021/03/11 12:59:05;;;;;;;1.80;1.50;;;;;;;;;;4990108;28;20286;-54
2021/03/11 13:01:30;;;;;;;2.20;1.47;;;;;;;;;;4988982;28;20202;-50
2021/03/11 13:03:55;;;;;;;1.47;1.37;;;;;;;;;;5001374;28;20215;-53
2021/03/11 13:06:21;;;;;;;2.80;1.43;;;;;;;;;;5000750;28;20192;-51
2021/03/11 13:08:46;;;;;;;1.60;1.50;;;;;;;;;;4997247;28;20187;-52
2021/03/11 13:11:12;;;;;;;2.63;1.83;;;;;;;;;;4999162;28;20621;-54
2021/03/11 13:13:38;;;;;;;5.97;1.70;;;;;;;;;;5001760;28;20187;-52
2021/03/11 13:16:04;;;;;;;2.10;1.57;;;;;;;;;;5001458;28;20241;-51
2021/03/11 13:18:29;;;;;;;4.13;1.73;;;;;;;;;;5000927;28;20204;-52
2021/03/11 13:20:54;;;;;;;2.20;1.50;;;;;;;;;;4998527;28;20706;-50
2021/03/11 13:23:19;;;;;;;3.53;1.77;;;;;;;;;;4999284;28;20220;-52
2021/03/11 13:25:45;;;;;;;3.13;1.70;;;;;;;;;;4997750;28;20211;-52
2021/03/11 13:28:11;;;;;;;3.77;1.67;;;;;;;;;;4999902;28;20767;-52
2021/03/11 13:30:38;;;;;;;3.10;1.40;;;;;;;;;;5000046;28;20286;-52
2021/03/11 13:33:03;;;;;;;4.27;1.60;;;;;;;;;;4993585;28;20282;-53
2021/03/11 13:35:28;;;;;;;1.67;1.27;;;;;;;;;;4991135;28;20303;-51
2021/03/11 13:37:56;;;;;;;2.67;1.20;;;;;;;;;;4998210;28;20200;-52
2021/03/11 13:40:22;;;;;;;2.60;1.10;;;;;;;;;;4979721;28;20226;-51
2021/03/11 13:42:47;;;;;;;2.90;1.30;;;;;;;;;;4998983;28;20555;-52
2021/03/11 13:45:13;;;;;;;4.33;1.67;;;;;;;;;;4994247;28;20231;-50
2021/03/11 13:47:38;;;;;;;3.47;1.33;;;;;;;;;;4998637;28;20253;-49
2021/03/11 13:50:05;;;;;;;11.37;2.17;;;;;;;;;;4997253;28;20203;-51
2021/03/11 13:52:30;;;;;;;3.33;1.53;;;;;;;;;;4995826;28;20880;-50
2021/03/11 13:54:58;;;;;;;5.60;1.60;;;;;;;;;;4999903;28;20206;-51
2021/03/11 13:57:23;;;;;;;3.40;1.40;;;;;;;;;;4998349;28;20249;-51
2021/03/11 13:59:48;;;;;;;6.57;1.60;;;;;;;;;;5006098;28;20191;-51
2021/03/11 14:02:14;;;;;;;4.90;1.80;;;;;;;;;;5007748;28;20660;-50
2021/03/11 14:04:39;;;;;;;4.27;1.27;;;;;;;;;;5005084;28;20199;-51
2021/03/11 14:07:04;;;;;;;3.97;1.60;;;;;;;;;;5002081;28;20195;-51
2021/03/11 14:09:30;;;;;;;7.13;1.70;;;;;;;;;;5004916;28;20191;-52
2021/03/11 14:11:55;;;;;;;7.00;1.40;;;;;;;;;;5007510;28;20306;-51
2021/03/11 14:14:21;;;;;;;7.10;1.73;;;;;;;;;;5005414;28;20224;-52
2021/03/11 14:16:46;;;;;;;4.30;1.53;;;;;;;;;;4987068;28;20191;-51
2021/03/11 14:19:11;;;;;;;6.63;1.97;;;;;;;;;;5000922;28;20284;-49
2021/03/11 14:21:37;;;;;;;4.83;1.70;;;;;;;;;;5006550;28;20333;-53
2021/03/11 14:24:03;;;;;;;3.87;1.67;;;;;;;;;;5003522;28;20338;-50
2021/03/11 14:26:29;;;;;;;5.20;1.93;;;;;;;;;;5005553;28;20812;-51
2021/03/11 14:28:54;;;;;;;5.00;1.70;;;;;;;;;;5008006;28;20623;-49
2021/03/11 14:31:20;;;;;;;6.03;1.67;;;;;;;;;;5006482;28;20286;-49
2021/03/11 14:33:45;;;;;;;5.13;1.47;;;;;;;;;;5007282;28;20612;-51